sensor_id;sensor_type;location;lat;lon;timestamp;temperature;humidity
24472;DHT22;12636;50.852;5.676;2024-03-02T00:00:48;9.90;1.00
24472;DHT22;12636;50.852;5.676;2024-03-02T00:03:15;9.90;1.00
24472;DHT22;12636;50.852;5.676;2024-03-02T00:05:42;9.90;1.00
24472;DHT22;12636;50.852;5.676;2024-03-02T00:08:09;9.90;1.00
24472;DHT22;12636;50.852;5.676;2024-03-02T00:10:38;9.90;1.00
24472;DHT22;12636;50.852;5.676;2024-03-02T00:13:06;10.00;1.00
24472;DHT22;12636;50.852;5.676;2024-03-02T00:15:40;9.90;1.00
24472;DHT22;12636;50.852;5.676;2024-03-02T00:18:08;9.90;1.00
24472;DHT22;12636;50.852;5.676;2024-03-02T00:20:35;9.90;1.00
24472;DHT22;12636;50.852;5.676;2024-03-02T00:23:02;9.90;1.00
24472;DHT22;12636;50.852;5.676;2024-03-02T00:25:35;9.80;1.00
24472;DHT22;12636;50.852;5.676;2024-03-02T00:28:04;9.70;1.00
24472;DHT22;12636;50.852;5.676;2024-03-02T00:30:40;9.70;1.00
24472;DHT22;12636;50.852;5.676;2024-03-02T00:33:13;9.80;1.00
24472;DHT22;12636;50.852;5.676;2024-03-02T00:35:40;9.80;1.00
24472;DHT22;12636;50.852;5.676;2024-03-02T00:38:06;9.80;1.00
24472;DHT22;12636;50.852;5.676;2024-03-02T00:40:33;9.70;1.00
24472;DHT22;12636;50.852;5.676;2024-03-02T00:43:00;9.70;1.00
24472;DHT22;12636;50.852;5.676;2024-03-02T00:45:30;9.70;1.00
24472;DHT22;12636;50.852;5.676;2024-03-02T00:47:57;9.70;1.00
24472;DHT22;12636;50.852;5.676;2024-03-02T00:50:24;9.60;1.00
24472;DHT22;12636;50.852;5.676;2024-03-02T00:52:50;9.00;1.00
24472;DHT22;12636;50.852;5.676;2024-03-02T00:55:17;8.60;99.90
24472;DHT22;12636;50.852;5.676;2024-03-02T00:57:45;8.10;1.00
24472;DHT22;12636;50.852;5.676;2024-03-02T01:00:12;7.80;1.00
24472;DHT22;12636;50.852;5.676;2024-03-02T01:02:42;7.70;1.00
24472;DHT22;12636;50.852;5.676;2024-03-02T01:05:09;7.60;1.00
24472;DHT22;12636;50.852;5.676;2024-03-02T01:07:37;7.60;1.00
24472;DHT22;12636;50.852;5.676;2024-03-02T01:10:05;7.60;1.00
24472;DHT22;12636;50.852;5.676;2024-03-02T01:12:32;7.60;1.00
24472;DHT22;12636;50.852;5.676;2024-03-02T01:14:58;7.60;1.00
24472;DHT22;12636;50.852;5.676;2024-03-02T01:17:25;7.50;1.00
24472;DHT22;12636;50.852;5.676;2024-03-02T01:19:54;7.50;1.00
24472;DHT22;12636;50.852;5.676;2024-03-02T01:22:20;7.50;1.00
24472;DHT22;12636;50.852;5.676;2024-03-02T01:24:50;7.40;1.00
24472;DHT22;12636;50.852;5.676;2024-03-02T01:27:17;7.40;1.00
24472;DHT22;12636;50.852;5.676;2024-03-02T01:29:44;7.40;1.00
24472;DHT22;12636;50.852;5.676;2024-03-02T01:32:11;7.40;1.00
24472;DHT22;12636;50.852;5.676;2024-03-02T01:34:38;7.40;1.00
24472;DHT22;12636;50.852;5.676;2024-03-02T01:37:06;7.30;1.00
24472;DHT22;12636;50.852;5.676;2024-03-02T01:39:33;7.30;1.00
24472;DHT22;12636;50.852;5.676;2024-03-02T01:42:00;7.30;1.00
24472;DHT22;12636;50.852;5.676;2024-03-02T01:44:27;7.20;1.00
24472;DHT22;12636;50.852;5.676;2024-03-02T01:46:54;7.20;1.00
24472;DHT22;12636;50.852;5.676;2024-03-02T01:49:21;7.10;1.00
24472;DHT22;12636;50.852;5.676;2024-03-02T01:51:48;7.00;1.00
24472;DHT22;12636;50.852;5.676;2024-03-02T01:54:16;7.00;1.00
24472;DHT22;12636;50.852;5.676;2024-03-02T01:56:43;6.90;1.00
24472;DHT22;12636;50.852;5.676;2024-03-02T01:59:10;6.90;1.00
24472;DHT22;12636;50.852;5.676;2024-03-02T02:01:38;6.80;5.40
24472;DHT22;12636;50.852;5.676;2024-03-02T02:04:05;6.80;9.10
24472;DHT22;12636;50.852;5.676;2024-03-02T02:06:32;6.80;18.40
24472;DHT22;12636;50.852;5.676;2024-03-02T02:08:59;6.80;17.30
24472;DHT22;12636;50.852;5.676;2024-03-02T02:11:28;6.80;10.20
24472;DHT22;12636;50.852;5.676;2024-03-02T02:13:55;6.80;25.20
24472;DHT22;12636;50.852;5.676;2024-03-02T02:16:22;6.70;46.60
24472;DHT22;12636;50.852;5.676;2024-03-02T02:18:49;6.80;33.20
24472;DHT22;12636;50.852;5.676;2024-03-02T02:21:15;6.70;32.30
24472;DHT22;12636;50.852;5.676;2024-03-02T02:23:44;6.70;25.70
24472;DHT22;12636;50.852;5.676;2024-03-02T02:26:13;6.80;14.00
24472;DHT22;12636;50.852;5.676;2024-03-02T02:28:40;6.80;1.00
24472;DHT22;12636;50.852;5.676;2024-03-02T02:31:12;6.90;1.00
24472;DHT22;12636;50.852;5.676;2024-03-02T02:33:39;6.90;1.00
24472;DHT22;12636;50.852;5.676;2024-03-02T02:36:06;7.00;1.00
24472;DHT22;12636;50.852;5.676;2024-03-02T02:38:33;7.10;1.00
24472;DHT22;12636;50.852;5.676;2024-03-02T02:41:03;7.10;1.00
24472;DHT22;12636;50.852;5.676;2024-03-02T02:43:30;7.20;1.00
24472;DHT22;12636;50.852;5.676;2024-03-02T02:45:57;7.20;1.00
24472;DHT22;12636;50.852;5.676;2024-03-02T02:48:24;7.20;1.00
24472;DHT22;12636;50.852;5.676;2024-03-02T02:50:51;7.20;1.00
24472;DHT22;12636;50.852;5.676;2024-03-02T02:53:17;7.20;1.00
24472;DHT22;12636;50.852;5.676;2024-03-02T02:55:44;7.20;1.00
24472;DHT22;12636;50.852;5.676;2024-03-02T02:58:13;7.30;1.00
24472;DHT22;12636;50.852;5.676;2024-03-02T03:00:40;7.30;1.00
24472;DHT22;12636;50.852;5.676;2024-03-02T03:03:07;7.40;1.00
24472;DHT22;12636;50.852;5.676;2024-03-02T03:05:33;7.40;1.00
24472;DHT22;12636;50.852;5.676;2024-03-02T03:08:00;7.40;1.00
24472;DHT22;12636;50.852;5.676;2024-03-02T03:10:28;7.40;1.00
24472;DHT22;12636;50.852;5.676;2024-03-02T03:12:55;7.40;1.00
24472;DHT22;12636;50.852;5.676;2024-03-02T03:15:23;7.40;1.00
24472;DHT22;12636;50.852;5.676;2024-03-02T03:17:51;7.30;99.90
24472;DHT22;12636;50.852;5.676;2024-03-02T03:20:17;7.40;99.90
24472;DHT22;12636;50.852;5.676;2024-03-02T03:22:46;7.40;99.90
24472;DHT22;12636;50.852;5.676;2024-03-02T03:25:13;7.40;99.90
24472;DHT22;12636;50.852;5.676;2024-03-02T03:27:40;7.30;99.90
24472;DHT22;12636;50.852;5.676;2024-03-02T03:30:07;7.30;99.90
24472;DHT22;12636;50.852;5.676;2024-03-02T03:32:36;7.30;99.90
24472;DHT22;12636;50.852;5.676;2024-03-02T03:35:03;7.40;99.90
24472;DHT22;12636;50.852;5.676;2024-03-02T03:37:30;7.40;99.90
24472;DHT22;12636;50.852;5.676;2024-03-02T03:39:58;7.40;1.00
24472;DHT22;12636;50.852;5.676;2024-03-02T03:42:25;7.30;1.00
24472;DHT22;12636;50.852;5.676;2024-03-02T03:44:52;7.40;1.00
24472;DHT22;12636;50.852;5.676;2024-03-02T03:47:19;7.40;1.00
24472;DHT22;12636;50.852;5.676;2024-03-02T03:49:47;7.30;1.00
24472;DHT22;12636;50.852;5.676;2024-03-02T03:52:14;7.40;1.00
24472;DHT22;12636;50.852;5.676;2024-03-02T03:54:41;7.30;1.00
24472;DHT22;12636;50.852;5.676;2024-03-02T03:57:08;7.30;1.00
24472;DHT22;12636;50.852;5.676;2024-03-02T03:59:35;7.40;1.00
24472;DHT22;12636;50.852;5.676;2024-03-02T04:02:02;7.30;1.00
24472;DHT22;12636;50.852;5.676;2024-03-02T04:04:29;7.30;1.00
24472;DHT22;12636;50.852;5.676;2024-03-02T04:06:58;7.20;1.00
24472;DHT22;12636;50.852;5.676;2024-03-02T04:09:25;7.20;1.00
24472;DHT22;12636;50.852;5.676;2024-03-02T04:11:52;7.20;1.00
24472;DHT22;12636;50.852;5.676;2024-03-02T04:14:19;7.20;1.00
24472;DHT22;12636;50.852;5.676;2024-03-02T04:16:46;7.20;1.00
24472;DHT22;12636;50.852;5.676;2024-03-02T04:19:13;7.30;1.00
24472;DHT22;12636;50.852;5.676;2024-03-02T04:21:40;7.30;1.00
24472;DHT22;12636;50.852;5.676;2024-03-02T04:24:08;7.30;1.00
24472;DHT22;12636;50.852;5.676;2024-03-02T04:26:35;7.30;1.00
24472;DHT22;12636;50.852;5.676;2024-03-02T04:29:02;7.20;1.00
24472;DHT22;12636;50.852;5.676;2024-03-02T04:31:29;7.30;1.00
24472;DHT22;12636;50.852;5.676;2024-03-02T04:33:56;7.30;1.00
24472;DHT22;12636;50.852;5.676;2024-03-02T04:36:23;7.30;1.00
24472;DHT22;12636;50.852;5.676;2024-03-02T04:38:50;7.30;1.00
24472;DHT22;12636;50.852;5.676;2024-03-02T04:41:18;7.30;1.00
24472;DHT22;12636;50.852;5.676;2024-03-02T04:43:45;7.20;1.00
24472;DHT22;12636;50.852;5.676;2024-03-02T04:46:12;7.20;1.00
24472;DHT22;12636;50.852;5.676;2024-03-02T04:48:39;7.20;1.00
24472;DHT22;12636;50.852;5.676;2024-03-02T04:51:06;7.30;99.90
24472;DHT22;12636;50.852;5.676;2024-03-02T04:53:33;7.30;99.90
24472;DHT22;12636;50.852;5.676;2024-03-02T04:55:59;7.40;1.00
24472;DHT22;12636;50.852;5.676;2024-03-02T04:58:44;7.30;1.00
24472;DHT22;12636;50.852;5.676;2024-03-02T05:01:11;7.40;1.00
24472;DHT22;12636;50.852;5.676;2024-03-02T05:03:38;7.40;1.00
24472;DHT22;12636;50.852;5.676;2024-03-02T05:06:05;7.40;1.00
24472;DHT22;12636;50.852;5.676;2024-03-02T05:08:34;7.30;1.00
24472;DHT22;12636;50.852;5.676;2024-03-02T05:11:00;7.30;1.00
24472;DHT22;12636;50.852;5.676;2024-03-02T05:13:49;7.30;1.00
24472;DHT22;12636;50.852;5.676;2024-03-02T05:16:15;7.30;99.90
24472;DHT22;12636;50.852;5.676;2024-03-02T05:18:42;7.30;99.90
24472;DHT22;12636;50.852;5.676;2024-03-02T05:21:09;7.40;99.90
24472;DHT22;12636;50.852;5.676;2024-03-02T05:23:37;7.40;99.90
24472;DHT22;12636;50.852;5.676;2024-03-02T05:26:03;7.40;1.00
24472;DHT22;12636;50.852;5.676;2024-03-02T05:28:31;7.30;1.00
24472;DHT22;12636;50.852;5.676;2024-03-02T05:30:59;7.30;1.00
24472;DHT22;12636;50.852;5.676;2024-03-02T05:33:26;7.30;1.00
24472;DHT22;12636;50.852;5.676;2024-03-02T05:35:53;7.30;99.90
24472;DHT22;12636;50.852;5.676;2024-03-02T05:38:21;7.20;99.90
24472;DHT22;12636;50.852;5.676;2024-03-02T05:40:48;7.10;99.90
24472;DHT22;12636;50.852;5.676;2024-03-02T05:43:15;7.00;1.00
24472;DHT22;12636;50.852;5.676;2024-03-02T05:45:41;7.00;1.00
24472;DHT22;12636;50.852;5.676;2024-03-02T05:48:10;7.00;1.00
24472;DHT22;12636;50.852;5.676;2024-03-02T05:50:36;7.00;1.00
24472;DHT22;12636;50.852;5.676;2024-03-02T05:53:03;7.10;99.90
24472;DHT22;12636;50.852;5.676;2024-03-02T05:55:30;7.00;99.90
24472;DHT22;12636;50.852;5.676;2024-03-02T05:57:57;7.00;1.00
24472;DHT22;12636;50.852;5.676;2024-03-02T06:00:41;7.00;99.90
24472;DHT22;12636;50.852;5.676;2024-03-02T06:03:07;6.80;1.00
24472;DHT22;12636;50.852;5.676;2024-03-02T06:05:36;6.80;1.00
24472;DHT22;12636;50.852;5.676;2024-03-02T06:08:03;6.70;96.10
24472;DHT22;12636;50.852;5.676;2024-03-02T06:10:30;6.60;99.90
24472;DHT22;12636;50.852;5.676;2024-03-02T06:12:57;6.60;99.90
24472;DHT22;12636;50.852;5.676;2024-03-02T06:15:24;6.50;99.90
24472;DHT22;12636;50.852;5.676;2024-03-02T06:17:51;6.60;99.90
24472;DHT22;12636;50.852;5.676;2024-03-02T06:20:18;6.70;99.90
24472;DHT22;12636;50.852;5.676;2024-03-02T06:22:46;6.70;99.90
24472;DHT22;12636;50.852;5.676;2024-03-02T06:25:13;6.50;99.90
24472;DHT22;12636;50.852;5.676;2024-03-02T06:27:40;6.50;99.90
24472;DHT22;12636;50.852;5.676;2024-03-02T06:30:07;6.50;1.00
24472;DHT22;12636;50.852;5.676;2024-03-02T06:32:34;6.40;1.00
24472;DHT22;12636;50.852;5.676;2024-03-02T06:35:01;6.30;1.00
24472;DHT22;12636;50.852;5.676;2024-03-02T06:37:29;6.30;1.00
24472;DHT22;12636;50.852;5.676;2024-03-02T06:39:57;6.30;1.00
24472;DHT22;12636;50.852;5.676;2024-03-02T06:42:24;6.40;1.00
24472;DHT22;12636;50.852;5.676;2024-03-02T06:44:51;6.50;1.00
24472;DHT22;12636;50.852;5.676;2024-03-02T06:47:19;6.60;1.00
24472;DHT22;12636;50.852;5.676;2024-03-02T06:49:46;6.70;1.00
24472;DHT22;12636;50.852;5.676;2024-03-02T06:52:12;6.80;99.90
24472;DHT22;12636;50.852;5.676;2024-03-02T06:54:39;6.90;99.90
24472;DHT22;12636;50.852;5.676;2024-03-02T06:57:07;7.10;1.00
24472;DHT22;12636;50.852;5.676;2024-03-02T06:59:34;7.10;1.00
24472;DHT22;12636;50.852;5.676;2024-03-02T07:02:01;7.20;1.00
24472;DHT22;12636;50.852;5.676;2024-03-02T07:04:28;7.40;4.60
24472;DHT22;12636;50.852;5.676;2024-03-02T07:06:55;7.90;99.90
24472;DHT22;12636;50.852;5.676;2024-03-02T07:09:22;8.30;1.00
24472;DHT22;12636;50.852;5.676;2024-03-02T07:11:49;8.50;1.00
24472;DHT22;12636;50.852;5.676;2024-03-02T07:14:17;8.60;1.00
24472;DHT22;12636;50.852;5.676;2024-03-02T07:16:44;8.70;99.90
24472;DHT22;12636;50.852;5.676;2024-03-02T07:19:10;8.80;99.90
24472;DHT22;12636;50.852;5.676;2024-03-02T07:21:37;8.70;1.00
24472;DHT22;12636;50.852;5.676;2024-03-02T07:24:04;8.50;99.90
24472;DHT22;12636;50.852;5.676;2024-03-02T07:26:32;8.50;9.40
24472;DHT22;12636;50.852;5.676;2024-03-02T07:28:58;8.50;1.00
24472;DHT22;12636;50.852;5.676;2024-03-02T07:31:27;8.40;95.70
24472;DHT22;12636;50.852;5.676;2024-03-02T07:33:53;8.50;40.20
24472;DHT22;12636;50.852;5.676;2024-03-02T07:36:20;8.60;99.90
24472;DHT22;12636;50.852;5.676;2024-03-02T07:38:46;8.50;59.70
24472;DHT22;12636;50.852;5.676;2024-03-02T07:41:15;8.40;99.90
24472;DHT22;12636;50.852;5.676;2024-03-02T07:43:42;8.40;99.90
24472;DHT22;12636;50.852;5.676;2024-03-02T07:46:09;8.50;99.90
24472;DHT22;12636;50.852;5.676;2024-03-02T07:48:37;8.40;1.00
24472;DHT22;12636;50.852;5.676;2024-03-02T07:51:04;8.40;99.90
24472;DHT22;12636;50.852;5.676;2024-03-02T07:53:31;8.30;99.90
24472;DHT22;12636;50.852;5.676;2024-03-02T07:55:58;8.50;99.90
24472;DHT22;12636;50.852;5.676;2024-03-02T07:58:27;8.70;99.90
24472;DHT22;12636;50.852;5.676;2024-03-02T08:00:54;8.90;1.00
24472;DHT22;12636;50.852;5.676;2024-03-02T08:03:21;9.00;1.00
24472;DHT22;12636;50.852;5.676;2024-03-02T08:05:49;9.10;1.00
24472;DHT22;12636;50.852;5.676;2024-03-02T08:08:16;9.20;1.00
24472;DHT22;12636;50.852;5.676;2024-03-02T08:10:43;9.40;99.90
24472;DHT22;12636;50.852;5.676;2024-03-02T08:13:10;9.50;99.90
24472;DHT22;12636;50.852;5.676;2024-03-02T08:15:37;9.60;1.00
24472;DHT22;12636;50.852;5.676;2024-03-02T08:18:04;9.70;1.00
24472;DHT22;12636;50.852;5.676;2024-03-02T08:20:31;9.60;1.00
24472;DHT22;12636;50.852;5.676;2024-03-02T08:22:59;9.60;1.00
24472;DHT22;12636;50.852;5.676;2024-03-02T08:25:26;9.90;1.00
24472;DHT22;12636;50.852;5.676;2024-03-02T08:27:53;10.30;1.00
24472;DHT22;12636;50.852;5.676;2024-03-02T08:30:20;10.50;1.00
24472;DHT22;12636;50.852;5.676;2024-03-02T08:32:47;10.60;99.90
24472;DHT22;12636;50.852;5.676;2024-03-02T08:35:14;10.30;99.90
24472;DHT22;12636;50.852;5.676;2024-03-02T08:37:41;10.90;99.90
24472;DHT22;12636;50.852;5.676;2024-03-02T08:40:10;10.70;99.90
24472;DHT22;12636;50.852;5.676;2024-03-02T08:42:37;10.70;99.90
24472;DHT22;12636;50.852;5.676;2024-03-02T08:45:04;10.80;99.90
24472;DHT22;12636;50.852;5.676;2024-03-02T08:47:31;10.90;99.90
24472;DHT22;12636;50.852;5.676;2024-03-02T08:49:58;10.50;99.90
24472;DHT22;12636;50.852;5.676;2024-03-02T08:52:25;10.70;21.80
24472;DHT22;12636;50.852;5.676;2024-03-02T08:54:52;11.00;99.90
24472;DHT22;12636;50.852;5.676;2024-03-02T08:57:20;11.90;99.90
24472;DHT22;12636;50.852;5.676;2024-03-02T08:59:47;12.00;99.90
24472;DHT22;12636;50.852;5.676;2024-03-02T09:02:14;11.90;1.00
24472;DHT22;12636;50.852;5.676;2024-03-02T09:04:41;11.70;1.00
24472;DHT22;12636;50.852;5.676;2024-03-02T09:07:08;12.20;1.00
24472;DHT22;12636;50.852;5.676;2024-03-02T09:09:35;11.90;1.00
24472;DHT22;12636;50.852;5.676;2024-03-02T09:12:04;11.40;1.00
24472;DHT22;12636;50.852;5.676;2024-03-02T09:14:32;11.80;1.00
24472;DHT22;12636;50.852;5.676;2024-03-02T09:16:59;11.60;1.00
24472;DHT22;12636;50.852;5.676;2024-03-02T09:19:26;11.60;1.00
24472;DHT22;12636;50.852;5.676;2024-03-02T09:21:53;11.50;1.00
24472;DHT22;12636;50.852;5.676;2024-03-02T09:24:21;11.70;1.00
24472;DHT22;12636;50.852;5.676;2024-03-02T09:26:48;11.60;99.90
24472;DHT22;12636;50.852;5.676;2024-03-02T09:29:14;11.40;1.00
24472;DHT22;12636;50.852;5.676;2024-03-02T09:31:43;11.30;99.90
24472;DHT22;12636;50.852;5.676;2024-03-02T09:34:10;12.20;99.90
24472;DHT22;12636;50.852;5.676;2024-03-02T09:36:37;12.70;1.00
24472;DHT22;12636;50.852;5.676;2024-03-02T09:39:03;12.00;1.00
24472;DHT22;12636;50.852;5.676;2024-03-02T09:41:31;11.90;99.90
24472;DHT22;12636;50.852;5.676;2024-03-02T09:43:59;12.00;1.00
24472;DHT22;12636;50.852;5.676;2024-03-02T09:46:26;12.00;1.00
24472;DHT22;12636;50.852;5.676;2024-03-02T09:48:54;11.90;1.00
24472;DHT22;12636;50.852;5.676;2024-03-02T09:51:21;12.10;1.00
24472;DHT22;12636;50.852;5.676;2024-03-02T09:53:49;11.60;99.90
24472;DHT22;12636;50.852;5.676;2024-03-02T09:56:16;11.60;99.90
24472;DHT22;12636;50.852;5.676;2024-03-02T09:58:43;11.60;99.90
24472;DHT22;12636;50.852;5.676;2024-03-02T10:01:10;11.50;99.90
24472;DHT22;12636;50.852;5.676;2024-03-02T10:03:37;11.70;99.90
24472;DHT22;12636;50.852;5.676;2024-03-02T10:06:22;11.60;99.90
24472;DHT22;12636;50.852;5.676;2024-03-02T10:08:49;11.70;99.90
24472;DHT22;12636;50.852;5.676;2024-03-02T10:11:26;12.30;99.90
24472;DHT22;12636;50.852;5.676;2024-03-02T10:14:07;12.80;99.90
24472;DHT22;12636;50.852;5.676;2024-03-02T10:16:35;13.00;99.90
24472;DHT22;12636;50.852;5.676;2024-03-02T10:19:15;12.50;99.90
24472;DHT22;12636;50.852;5.676;2024-03-02T10:21:44;12.70;99.90
24472;DHT22;12636;50.852;5.676;2024-03-02T10:24:11;13.20;1.00
24472;DHT22;12636;50.852;5.676;2024-03-02T10:26:38;13.20;1.00
24472;DHT22;12636;50.852;5.676;2024-03-02T10:29:07;13.20;1.00
24472;DHT22;12636;50.852;5.676;2024-03-02T10:31:36;12.20;99.90
24472;DHT22;12636;50.852;5.676;2024-03-02T10:34:03;12.50;99.90
24472;DHT22;12636;50.852;5.676;2024-03-02T10:36:30;13.00;99.90
24472;DHT22;12636;50.852;5.676;2024-03-02T10:38:59;13.10;1.00
24472;DHT22;12636;50.852;5.676;2024-03-02T10:41:26;13.00;1.00
24472;DHT22;12636;50.852;5.676;2024-03-02T10:43:53;12.50;1.00
24472;DHT22;12636;50.852;5.676;2024-03-02T10:46:26;12.40;99.90
24472;DHT22;12636;50.852;5.676;2024-03-02T10:48:54;12.80;99.90
24472;DHT22;12636;50.852;5.676;2024-03-02T10:51:21;12.60;99.90
24472;DHT22;12636;50.852;5.676;2024-03-02T10:53:48;12.50;99.90
24472;DHT22;12636;50.852;5.676;2024-03-02T10:56:19;12.50;99.90
24472;DHT22;12636;50.852;5.676;2024-03-02T10:58:50;13.00;1.00
24472;DHT22;12636;50.852;5.676;2024-03-02T11:01:17;12.70;99.90
24472;DHT22;12636;50.852;5.676;2024-03-02T11:03:45;12.50;99.90
24472;DHT22;12636;50.852;5.676;2024-03-02T11:06:12;13.70;1.00
24472;DHT22;12636;50.852;5.676;2024-03-02T11:08:40;13.70;1.00
24472;DHT22;12636;50.852;5.676;2024-03-02T11:11:10;13.30;1.00
24472;DHT22;12636;50.852;5.676;2024-03-02T11:13:44;13.30;1.00
24472;DHT22;12636;50.852;5.676;2024-03-02T11:16:16;13.20;1.00
24472;DHT22;12636;50.852;5.676;2024-03-02T11:18:47;13.40;1.00
24472;DHT22;12636;50.852;5.676;2024-03-02T11:21:15;13.80;1.00
24472;DHT22;12636;50.852;5.676;2024-03-02T11:23:42;14.30;99.90
24472;DHT22;12636;50.852;5.676;2024-03-02T11:26:18;14.20;99.90
24472;DHT22;12636;50.852;5.676;2024-03-02T11:28:47;14.10;1.00
24472;DHT22;12636;50.852;5.676;2024-03-02T11:31:14;13.70;1.00
24472;DHT22;12636;50.852;5.676;2024-03-02T11:33:41;13.60;1.00
24472;DHT22;12636;50.852;5.676;2024-03-02T11:36:08;13.70;1.00
24472;DHT22;12636;50.852;5.676;2024-03-02T11:38:35;13.40;1.00
24472;DHT22;12636;50.852;5.676;2024-03-02T11:41:03;14.00;1.00
24472;DHT22;12636;50.852;5.676;2024-03-02T11:43:32;14.00;30.00
24472;DHT22;12636;50.852;5.676;2024-03-02T11:46:01;14.00;1.00
24472;DHT22;12636;50.852;5.676;2024-03-02T11:48:32;13.80;43.20
24472;DHT22;12636;50.852;5.676;2024-03-02T11:51:00;13.90;1.00
24472;DHT22;12636;50.852;5.676;2024-03-02T11:53:27;13.80;1.00
24472;DHT22;12636;50.852;5.676;2024-03-02T11:55:55;13.40;99.90
24472;DHT22;12636;50.852;5.676;2024-03-02T11:58:22;13.70;11.60
24472;DHT22;12636;50.852;5.676;2024-03-02T12:00:52;13.30;1.00
24472;DHT22;12636;50.852;5.676;2024-03-02T12:03:22;13.20;99.90
24472;DHT22;12636;50.852;5.676;2024-03-02T12:05:50;13.10;1.00
24472;DHT22;12636;50.852;5.676;2024-03-02T12:08:18;13.20;1.00
24472;DHT22;12636;50.852;5.676;2024-03-02T12:10:55;14.00;1.00
24472;DHT22;12636;50.852;5.676;2024-03-02T12:13:22;13.90;1.00
24472;DHT22;12636;50.852;5.676;2024-03-02T12:15:52;14.00;1.00
24472;DHT22;12636;50.852;5.676;2024-03-02T12:18:19;14.20;1.00
24472;DHT22;12636;50.852;5.676;2024-03-02T12:20:48;14.10;1.00
24472;DHT22;12636;50.852;5.676;2024-03-02T12:23:15;14.30;1.00
24472;DHT22;12636;50.852;5.676;2024-03-02T12:25:42;14.10;1.00
24472;DHT22;12636;50.852;5.676;2024-03-02T12:28:10;14.20;1.00
24472;DHT22;12636;50.852;5.676;2024-03-02T12:30:37;14.70;1.00
24472;DHT22;12636;50.852;5.676;2024-03-02T12:33:04;14.70;99.90
24472;DHT22;12636;50.852;5.676;2024-03-02T12:35:31;14.90;1.00
24472;DHT22;12636;50.852;5.676;2024-03-02T12:37:59;14.50;1.00
24472;DHT22;12636;50.852;5.676;2024-03-02T12:40:26;14.40;1.00
24472;DHT22;12636;50.852;5.676;2024-03-02T12:42:53;14.90;1.00
24472;DHT22;12636;50.852;5.676;2024-03-02T12:45:20;15.20;1.00
24472;DHT22;12636;50.852;5.676;2024-03-02T12:47:49;15.70;1.00
24472;DHT22;12636;50.852;5.676;2024-03-02T12:50:16;15.50;99.90
24472;DHT22;12636;50.852;5.676;2024-03-02T12:52:43;15.70;99.90
24472;DHT22;12636;50.852;5.676;2024-03-02T12:55:11;16.30;1.00
24472;DHT22;12636;50.852;5.676;2024-03-02T12:57:39;15.50;99.90
24472;DHT22;12636;50.852;5.676;2024-03-02T13:00:06;15.60;99.90
24472;DHT22;12636;50.852;5.676;2024-03-02T13:02:34;14.60;1.00
24472;DHT22;12636;50.852;5.676;2024-03-02T13:05:02;15.10;1.00
24472;DHT22;12636;50.852;5.676;2024-03-02T13:07:29;15.50;99.90
24472;DHT22;12636;50.852;5.676;2024-03-02T13:09:56;15.30;99.90
24472;DHT22;12636;50.852;5.676;2024-03-02T13:12:24;15.60;1.00
24472;DHT22;12636;50.852;5.676;2024-03-02T13:14:51;16.30;1.00
24472;DHT22;12636;50.852;5.676;2024-03-02T13:17:19;16.20;1.00
24472;DHT22;12636;50.852;5.676;2024-03-02T13:19:52;16.00;99.90
24472;DHT22;12636;50.852;5.676;2024-03-02T13:22:19;16.50;1.00
24472;DHT22;12636;50.852;5.676;2024-03-02T13:24:46;15.90;99.90
24472;DHT22;12636;50.852;5.676;2024-03-02T13:27:13;15.40;1.00
24472;DHT22;12636;50.852;5.676;2024-03-02T13:29:42;14.90;99.90
24472;DHT22;12636;50.852;5.676;2024-03-02T13:32:09;14.40;1.00
24472;DHT22;12636;50.852;5.676;2024-03-02T13:34:36;14.70;1.00
24472;DHT22;12636;50.852;5.676;2024-03-02T13:37:03;14.90;1.00
24472;DHT22;12636;50.852;5.676;2024-03-02T13:39:31;14.00;1.00
24472;DHT22;12636;50.852;5.676;2024-03-02T13:41:58;14.70;1.00
24472;DHT22;12636;50.852;5.676;2024-03-02T13:44:29;14.90;1.00
24472;DHT22;12636;50.852;5.676;2024-03-02T13:46:58;13.90;99.90
24472;DHT22;12636;50.852;5.676;2024-03-02T13:49:25;14.10;99.90
24472;DHT22;12636;50.852;5.676;2024-03-02T13:51:58;14.80;1.00
24472;DHT22;12636;50.852;5.676;2024-03-02T13:54:28;14.60;1.00
24472;DHT22;12636;50.852;5.676;2024-03-02T13:56:55;14.30;1.00
24472;DHT22;12636;50.852;5.676;2024-03-02T13:59:24;13.90;99.90
24472;DHT22;12636;50.852;5.676;2024-03-02T14:01:50;14.30;99.90
24472;DHT22;12636;50.852;5.676;2024-03-02T14:04:19;14.10;99.90
24472;DHT22;12636;50.852;5.676;2024-03-02T14:06:46;13.80;1.00
24472;DHT22;12636;50.852;5.676;2024-03-02T14:09:13;14.00;1.00
24472;DHT22;12636;50.852;5.676;2024-03-02T14:11:40;14.00;1.00
24472;DHT22;12636;50.852;5.676;2024-03-02T14:14:07;14.90;84.40
24472;DHT22;12636;50.852;5.676;2024-03-02T14:16:34;15.00;1.00
24472;DHT22;12636;50.852;5.676;2024-03-02T14:19:01;14.30;99.90
24472;DHT22;12636;50.852;5.676;2024-03-02T14:21:30;13.90;1.00
24472;DHT22;12636;50.852;5.676;2024-03-02T14:23:57;13.60;1.00
24472;DHT22;12636;50.852;5.676;2024-03-02T14:26:24;13.50;1.00
24472;DHT22;12636;50.852;5.676;2024-03-02T14:28:53;14.50;1.00
24472;DHT22;12636;50.852;5.676;2024-03-02T14:31:20;14.30;1.00
24472;DHT22;12636;50.852;5.676;2024-03-02T14:33:47;13.80;1.00
24472;DHT22;12636;50.852;5.676;2024-03-02T14:36:14;13.60;99.90
24472;DHT22;12636;50.852;5.676;2024-03-02T14:38:42;13.80;84.90
24472;DHT22;12636;50.852;5.676;2024-03-02T14:41:09;13.60;1.00
24472;DHT22;12636;50.852;5.676;2024-03-02T14:43:36;13.60;1.00
24472;DHT22;12636;50.852;5.676;2024-03-02T14:46:03;13.50;1.00
24472;DHT22;12636;50.852;5.676;2024-03-02T14:48:30;13.40;1.00
24472;DHT22;12636;50.852;5.676;2024-03-02T14:50:57;13.30;1.00
24472;DHT22;12636;50.852;5.676;2024-03-02T14:53:24;13.30;1.00
24472;DHT22;12636;50.852;5.676;2024-03-02T14:55:52;13.20;99.90
24472;DHT22;12636;50.852;5.676;2024-03-02T14:58:19;13.30;1.00
24472;DHT22;12636;50.852;5.676;2024-03-02T15:00:46;13.40;99.90
24472;DHT22;12636;50.852;5.676;2024-03-02T15:03:13;13.40;99.90
24472;DHT22;12636;50.852;5.676;2024-03-02T15:05:40;13.30;99.90
24472;DHT22;12636;50.852;5.676;2024-03-02T15:08:07;13.30;99.90
24472;DHT22;12636;50.852;5.676;2024-03-02T15:10:33;13.20;1.00
24472;DHT22;12636;50.852;5.676;2024-03-02T15:13:02;13.30;1.00
24472;DHT22;12636;50.852;5.676;2024-03-02T15:15:29;13.40;1.00
24472;DHT22;12636;50.852;5.676;2024-03-02T15:17:56;13.80;41.40
24472;DHT22;12636;50.852;5.676;2024-03-02T15:20:23;14.10;99.90
24472;DHT22;12636;50.852;5.676;2024-03-02T15:22:50;14.10;99.90
24472;DHT22;12636;50.852;5.676;2024-03-02T15:25:17;13.60;1.00
24472;DHT22;12636;50.852;5.676;2024-03-02T15:27:44;13.50;99.90
24472;DHT22;12636;50.852;5.676;2024-03-02T15:30:12;13.30;1.00
24472;DHT22;12636;50.852;5.676;2024-03-02T15:32:39;13.30;1.00
24472;DHT22;12636;50.852;5.676;2024-03-02T15:35:06;13.60;1.00
24472;DHT22;12636;50.852;5.676;2024-03-02T15:37:34;14.00;99.90
24472;DHT22;12636;50.852;5.676;2024-03-02T15:40:01;14.10;1.00
24472;DHT22;12636;50.852;5.676;2024-03-02T15:42:32;14.30;1.00
24472;DHT22;12636;50.852;5.676;2024-03-02T15:44:59;14.00;1.00
24472;DHT22;12636;50.852;5.676;2024-03-02T15:47:27;13.50;1.00
24472;DHT22;12636;50.852;5.676;2024-03-02T15:49:54;13.20;1.00
24472;DHT22;12636;50.852;5.676;2024-03-02T15:52:21;13.00;99.90